FW3889 Weather Reports


time (UTC)temp
C
wind
direction
speed
KPH
gust
KPH
rain 1hr
cm
rain 24hr
cm
rain mn
cm
humidity
%
barometer
mb
20200229094016 14 45 4.8 8.0 0.00 0.00 0.00 44 1024.0
20200229093016 14 45 3.2 4.8 0.00 0.00 0.00 46 1024.4
20200229092016 14 45 3.2 4.8 0.00 0.00 0.00 47 1024.5
20200229091015 14 45 4.8 4.8 0.00 0.00 0.00 50 1024.7
20200229090016 13 0.0 1.6 0.00 0.00 0.00 51 1024.9
20200229085016 13 45 1.6 3.2 0.00 0.00 0.00 52 1024.9
20200229084015 13 45 4.8 6.4 0.00 0.00 0.00 54 1024.9
20200229083016 13 45 3.2 4.8 0.00 0.00 0.00 55 1025.2
20200229082015 12 0.0 3.2 0.00 0.00 0.00 55 1025.3
20200229081016 12 0.0 0.0 0.00 0.00 0.00 56 1025.4
20200229080015 12 22 3.2 4.8 0.00 0.00 0.00 56 1025.4
20200229075016 12 22 3.2 4.8 0.00 0.00 0.00 57 1025.6
20200229074016 12 22 1.6 3.2 0.00 0.00 0.00 58 1025.8
20200229073016 11 22 1.6 3.2 0.00 0.00 0.00 58 1025.9
20200229072015 11 0.0 1.6 0.00 0.00 0.00 57 1025.9
20200229071015 11 22 3.2 4.8 0.00 0.00 0.00 55 1025.9
20200229070016 12 22 3.2 4.8 0.00 0.00 0.00 54 1025.9
20200229065015 12 22 1.6 3.2 0.00 0.00 0.00 52 1025.9
20200229064015 12 22 1.6 3.2 0.00 0.00 0.00 53 1026.0
20200229063016 12 22 3.2 4.8 0.00 0.00 0.00 52 1026.0
20200229062016 13 22 3.2 4.8 0.00 0.00 0.00 51 1026.2
20200229061015 13 0.0 0.0 0.00 0.00 0.00 51 1026.3
20200229060016 13 0.0 0.0 0.00 0.00 0.00 50 1026.3
20200229055015 12 0.0 1.6 0.00 0.00 0.00 51 1026.5
20200229054015 13 22 1.6 3.2 0.00 0.00 0.00 51 1026.2
20200229053015 13 22 1.6 3.2 0.00 0.00 0.00 51 1026.0
20200229052015 13 22 3.2 4.8 0.00 0.00 0.00 51 1026.1
20200229051015 13 22 4.8 6.4 0.00 0.00 0.00 50 1025.9
20200229050015 13 45 4.8 6.4 0.00 0.00 0.00 48 1026.1
20200229045018 15 90 6.4 6.4 0.00 0.00 0.00 44 1026.2
20200229044017 16 180 1.6 3.2 0.00 0.00 0.00 40 1026.3
20200229043017 17 225 3.2 6.4 0.00 0.00 0.00 39 1026.2
20200229042017 17 247 3.2 6.4 0.00 0.00 0.00 39 1026.4
20200229041017 16 202 1.6 3.2 0.00 0.00 0.00 40 1026.3
20200229040017 16 202 3.2 4.8 0.00 0.00 0.00 40 1026.2
20200229035018 17 202 3.2 6.4 0.00 0.00 0.00 39 1026.1
20200229034017 17 180 1.6 4.8 0.00 0.00 0.00 37 1026.1
20200229033018 18 180 3.2 8.0 0.00 0.00 0.00 35 1025.9
20200229032017 18 225 6.4 9.7 0.00 0.00 0.00 35 1025.8
20200229031017 18 225 8.0 9.7 0.00 0.00 0.00 34 1025.7
20200229030017 18 225 6.4 8.0 0.00 0.00 0.00 35 1025.5
20200229025017 19 202 6.4 8.0 0.00 0.00 0.00 34 1025.5
20200229024017 20 202 8.0 11.3 0.00 0.00 0.00 33 1025.4
20200229023017 20 225 6.4 9.7 0.00 0.00 0.00 35 1025.4
20200229022017 20 202 6.4 8.0 0.00 0.00 0.00 35 1025.5
20200229012017 23 225 6.4 9.7 0.00 0.00 0.00 27 1025.4
20200229011017 23 202 6.4 8.0 0.00 0.00 0.00 26 1025.3
20200229010017 23 202 6.4 8.0 0.00 0.00 0.00 24 1025.4
20200229005017 24 202 4.8 6.4 0.00 0.00 0.00 20 1025.5
20200229004018 25 180 4.8 6.4 0.00 0.00 0.00 17 1025.5
20200229003017 25 180 4.8 8.0 0.00 0.00 0.00 16 1025.5
20200229002017 26 180 4.8 8.0 0.00 0.00 0.00 15 1025.6
20200229001017 26 202 6.4 11.3 0.00 0.00 0.00 12 1025.7
20200229000017 27 225 8.0 11.3 0.00 0.00 0.00 10 1025.6
20200228235017 27 225 9.7 14.5 0.00 0.00 0.00 10 1025.7
20200228234017 27 202 8.0 12.9 0.00 0.00 0.00 8 1025.6
20200228233017 27 202 11.3 14.5 0.00 0.00 0.00 9 1025.6
20200228232017 28 247 4.8 11.3 0.00 0.00 0.00 6 1025.4
20200228231017 28 202 4.8 8.0 0.00 0.00 0.00 9 1025.5
20200228230017 28 225 4.8 12.9 0.00 0.00 0.00 7 1025.6
20200228225017 28 247 4.8 8.0 0.00 0.00 0.00 5 1025.5
20200228224017 28 225 8.0 16.1 0.00 0.00 0.00 7 1025.7
20200228223017 28 225 9.7 14.5 0.00 0.00 0.00 7 1025.8
20200228222016 28 247 9.7 17.7 0.00 0.00 0.00 7 1025.8
20200228221016 28 225 11.3 16.1 0.00 0.00 0.00 4 1025.8
20200228220016 28 202 9.7 19.3 0.00 0.00 0.00 7 1026.0
20200228215017 28 225 11.3 17.7 0.00 0.00 0.00 5 1026.1
20200228214016 28 202 11.3 19.3 0.00 0.00 0.00 8 1026.2
20200228213017 28 225 11.3 16.1 0.00 0.00 0.00 9 1025.8
20200228212016 28 225 6.4 11.3 0.00 0.00 0.00 5 1025.7
20200228211016 29 202 9.7 17.7 0.00 0.00 0.00 6 1025.9
20200228210016 29 247 6.4 11.3 0.00 0.00 0.00 7 1025.8
20200228205016 30 67 3.2 6.4 0.00 0.00 0.00 4 1025.8
20200228204016 29 67 1.6 6.4 0.00 0.00 0.00 4 1026.0
20200228203016 30 112 4.8 9.7 0.00 0.00 0.00 6 1026.0
20200228202016 29 337 1.6 6.4 0.00 0.00 0.00 6 1026.1
20200228201017 28 0 1.6 4.8 0.00 0.00 0.00 7 1026.2
20200228200016 28 67 4.8 9.7 0.00 0.00 0.00 8 1026.3
20200228195017 27 90 4.8 11.3 0.00 0.00 0.00 10 1026.3
20200228194017 27 67 1.6 4.8 0.00 0.00 0.00 9 1026.6
20200228193016 27 90 4.8 9.7 0.00 0.00 0.00 8 1026.9
20200228192016 27 90 3.2 11.3 0.00 0.00 0.00 10 1027.0
20200228191016 27 90 9.7 17.7 0.00 0.00 0.00 9 1027.1
20200228190016 26 90 8.0 12.9 0.00 0.00 0.00 9 1027.3
20200228185016 26 112 9.7 14.5 0.00 0.00 0.00 9 1027.4
20200228184016 25 67 9.7 14.5 0.00 0.00 0.00 10 1027.5
20200228183016 25 67 11.3 16.1 0.00 0.00 0.00 9 1027.4
20200228182016 25 67 9.7 16.1 0.00 0.00 0.00 11 1027.5
20200228181016 24 67 11.3 16.1 0.00 0.00 0.00 13 1027.7
20200228180017 24 90 9.7 14.5 0.00 0.00 0.00 11 1027.8
20200228175016 23 67 11.3 14.5 0.00 0.00 0.00 12 1027.7
20200228174016 23 90 12.9 17.7 0.00 0.00 0.00 10 1027.5
20200228173016 23 90 14.5 19.3 0.00 0.00 0.00 9 1027.6
20200228172016 23 67 16.1 20.9 0.00 0.00 0.00 11 1027.7
20200228171017 23 90 17.7 24.1 0.00 0.00 0.00 8 1027.8
20200228170017 23 67 14.5 22.5 0.00 0.00 0.00 11 1027.8
20200228165016 21 90 6.4 12.9 0.00 0.00 0.00 20 1027.7
20200228164016 20 67 4.8 6.4 0.00 0.00 0.00 26 1027.7
20200228163016 18 67 4.8 6.4 0.00 0.00 0.00 28 1027.4
20200228162016 17 45 3.2 6.4 0.00 0.00 0.00 32 1027.5
20200228161016 16 45 4.8 8.0 0.00 0.00 0.00 36 1027.3
20200228160016 16 0 3.2 4.8 0.00 0.00 0.00 37 1027.3
20200228155016 15 0.0 3.2 0.00 0.00 0.00 39 1027.2
20200228154017 15 0.0 0.0 0.00 0.00 0.00 38 1027.0
20200228153016 14 0 1.6 4.8 0.00 0.00 0.00 41 1026.9
20200228152016 13 22 3.2 6.4 0.00 0.00 0.00 43 1026.5
20200228151016 13 45 1.6 4.8 0.00 0.00 0.00 44 1026.5
20200228150016 12 0.0 0.0 0.00 0.00 0.00 43 1026.3
20200228145016 12 0.0 0.0 0.00 0.00 0.00 44 1026.3
20200228144016 12 45 1.6 3.2 0.00 0.00 0.00 43 1026.1
20200228143016 12 45 4.8 6.4 0.00 0.00 0.00 44 1026.0
20200228142016 11 22 3.2 4.8 0.00 0.00 0.00 45 1026.0
20200228141016 11 22 3.2 4.8 0.00 0.00 0.00 45 1025.9
20200228140016 11 22 3.2 4.8 0.00 0.00 0.00 46 1025.7
20200228135016 10 22 1.6 3.2 0.00 0.00 0.00 46 1025.8
20200228134016 10 0.0 1.6 0.00 0.00 0.00 46 1025.7
20200228133016 11 22 3.2 4.8 0.00 0.00 0.00 45 1025.6
20200228132016 11 22 4.8 4.8 0.00 0.00 0.00 45 1025.6
20200228131016 11 0 3.2 4.8 0.00 0.00 0.00 45 1025.6
20200228130016 11 0 3.2 4.8 0.00 0.00 0.00 44 1025.7
20200228125016 11 0 3.2 4.8 0.00 0.00 0.00 45 1025.7
20200228124016 11 0 4.8 4.8 0.00 0.00 0.00 48 1025.5
20200228123016 10 0 3.2 4.8 0.00 0.00 0.00 48 1025.4
20200228122016 11 0 3.2 4.8 0.00 0.00 0.00 47 1025.5
20200228121016 11 0 4.8 6.4 0.00 0.00 0.00 46 1025.5
20200228120016 11 337 4.8 4.8 0.00 0.00 0.00 47 1025.5
20200228115015 11 337 4.8 4.8 0.00 0.00 0.00 47 1025.4
20200228114016 11 315 4.8 6.4 0.00 0.00 0.00 47 1025.4
20200228113015 11 315 3.2 4.8 0.00 0.00 0.00 48 1025.4
20200228112016 11 0.0 0.0 0.00 0.00 0.00 46 1025.4
20200228111015 12 315 1.6 4.8 0.00 0.00 0.00 44 1025.3
20200228110016 12 315 3.2 4.8 0.00 0.00 0.00 41 1025.1
20200228105016 12 0.0 0.0 0.00 0.00 0.00 38 1025.0
20200228104015 12 0.0 0.0 0.00 0.00 0.00 43 1024.9
20200228103016 11 0.0 0.0 0.00 0.00 0.00 43 1024.7
20200228102016 11 0.0 1.6 0.00 0.00 0.00 44 1024.8
20200228101016 11 22 1.6 3.2 0.00 0.00 0.00 46 1024.7
20200228100015 11 0.0 0.0 0.00 0.00 0.00 45 1024.8
20200228095015 11 0.0 0.0 0.00 0.00 0.00 46 1024.7